map of KAAO home
KAAO - Airport
Location
City:  Wichita, Kansas, United States
Name:Colonel James Jabara Airport
ICAO:KAAO
FAA LID:AAO

Details
Type:Airport (Airfield)
Use:Public/Civil
Latitude:3744'51"N (37.747583)
Longitude:9713'16"W (-97.221110)
Datum:WGS 1984
Elevation:1420 ft (433 m)
Variation:3.42E (WMM2015 magnetic declination)
-0.10 annual change
Runways:1
Longest:6101 × 100 ft (1860 × 30.5 m), paved

Time
Time Zone:UTC-6 (DST-5)
Local Time:

Weather
METAR:KAAO 171654Z AUTO 14008KT 10SM CLR 09/M03 A3030 RMK AO2 SLP270 T00941028

Related Locations
Nearby:
Farthest:RRG: 10735 mi / 17276 km
Plaine Corail [Sir Gatan Duval Airport (Plaine Corail Airport)], Rodrigues Island, MU

Find:

   beyond  
but within

Other Information
Maps:
NOTAMs:
Links:
Sources:

  
  • flag of United States
  • flag of Kansas
  • flag of Wichita
  

Sectional Chart

Flight Planning
at skyvector.com

Satellite Image

Google Maps Satellite view

 

Copyright © 2004-2018 Karl L. Swartz. All rights reserved.
The Great Circle Mapper name and logo are trademarks of the Great Circle Mapper.
All other trademarks mentioned herein belong to their respective owners.
Please see credits for attibutions and further copyright information.

  Follow gcmap on Facebook Follow gcmap on Twitter Follow gcmap on Google+ GCmap on LinkedIn

hCard Microformat

Geo Microformat